Pacific Titan — WCZ6844 — position and weather

sailwx.info

Track history (hours):
 
Tides and Currents Weather Stations Pressure Air Temp Water Temp Dewpoint Dewpoint Depression Visibility Wind Speed Wind Dir Waves Ship Positions

Pacific Titan

Owner: WESTERN TOWBOAT CO, SEATTLE, WA. More information available from US FCC via Universal Licensing System and Coast Guard Vessel Documentation Center.

Last reported at 2016-Dec-04 14:25 UTC. Time now 2016-Dec-10 05:09 UTC.
Position N 51°26' W 127°51'.

Type: Tow > 200 m length. MMSI: 338855000.

Date/timePositionNaut miles runAvg speedWind from/ knotsBaromVisibWave heightAir tempDewpointWater temp
2016-Dec-04 14:25N 51°26' W 127°51'8 8.8
2016-Dec-04 13:33N 51°18' W 127°54'8 8.1
2016-Dec-04 12:33N 51°11' W 127°51'6 6.5
2016-Dec-04 11:33N 51°06' W 127°44'7 6.6
2016-Dec-04 10:33N 51°01' W 127°37'7 6.9
2016-Dec-04 09:33N 50°57' W 127°28'8 8.4
2016-Dec-04 08:33N 50°51' W 127°18'10 9.3
2016-Dec-04 07:28N 50°45' W 127°06'8 8.6
2016-Dec-04 06:30N 50°41' W 126°54'63 8.9
2016-Dec-03 23:30N 50°16' W 125°24'9 8.6
2016-Dec-03 22:27N 50°08' W 125°21'910.4
2016-Dec-03 21:33N 50°00' W 125°12'10 9.7
2016-Dec-03 20:33N 49°53' W 125°02'10 9.7
2016-Dec-03 19:33N 49°47' W 124°50'1010.2
2016-Dec-03 18:33N 49°41' W 124°38'1010.0
2016-Dec-03 17:33N 49°35' W 124°25'1010.1
2016-Dec-03 16:33N 49°30' W 124°11'1010.5
2016-Dec-03 15:33N 49°24' W 123°59'1110.7
2016-Dec-03 14:33N 49°17' W 123°46'1110.7
2016-Dec-03 13:33N 49°11' W 123°32'1110.6
2016-Dec-03 12:33N 49°04' W 123°20'1111.0
2016-Dec-03 11:33N 48°56' W 123°08'1110.4
2016-Dec-03 10:32N 48°50' W 122°56'9 9.3
2016-Dec-03 09:33N 48°44' W 122°45'8 8.1
2016-Dec-03 08:33N 48°36' W 122°45'8 7.7
2016-Dec-03 07:33N 48°28' W 122°44'8 7.5
2016-Dec-03 06:31N 48°21' W 122°45'9 8.6
2016-Dec-03 05:29N 48°12' W 122°47'1212.2
2016-Dec-03 04:33N 48°02' W 122°37'1111.2
2016-Dec-03 03:34N 47°53' W 122°28'1010.2
2016-Dec-03 02:34N 47°43' W 122°26'8 7.8
2016-Dec-03 01:34N 47°36' W 122°22'3 2.8
2016-Dec-03 00:33N 47°33' W 122°21'1 1.1
2016-Dec-02 23:34N 47°34' W 122°21'6 6.1
2016-Dec-02 22:34N 47°40' W 122°24'2 1.5
2016-Dec-02 21:34N 47°39' W 122°22'0 0.0
2016-Dec-02 20:34N 47°39' W 122°22'0 0.0
2016-Dec-02 19:34N 47°39' W 122°22'0 0.0
2016-Dec-02 18:34N 47°39' W 122°22'0 0.0
2016-Dec-02 17:34N 47°39' W 122°22'  
Track history (hours):
 
Tides and Currents Weather Stations Pressure Air Temp Water Temp Dewpoint Dewpoint Depression Visibility Wind Speed Wind Dir Waves Ship Positions

Pacific Titan

Owner: WESTERN TOWBOAT CO, SEATTLE, WA. More information available from US FCC via Universal Licensing System and Coast Guard Vessel Documentation Center.

Last reported at 2016-Dec-04 14:25 UTC. Time now 2016-Dec-10 05:09 UTC.
Position N 51°26' W 127°51'.

Type: Tow > 200 m length. MMSI: 338855000.

Date/timePositionNaut miles runAvg speedWind from/ knotsBaromVisibWave heightAir tempDewpointWater temp
2016-Dec-04 14:25N 51°26' W 127°51'8 8.8
2016-Dec-04 13:33N 51°18' W 127°54'8 8.1
2016-Dec-04 12:33N 51°11' W 127°51'6 6.5
2016-Dec-04 11:33N 51°06' W 127°44'7 6.6
2016-Dec-04 10:33N 51°01' W 127°37'7 6.9
2016-Dec-04 09:33N 50°57' W 127°28'8 8.4
2016-Dec-04 08:33N 50°51' W 127°18'10 9.3
2016-Dec-04 07:28N 50°45' W 127°06'8 8.6
2016-Dec-04 06:30N 50°41' W 126°54'63 8.9
2016-Dec-03 23:30N 50°16' W 125°24'9 8.6
2016-Dec-03 22:27N 50°08' W 125°21'910.4
2016-Dec-03 21:33N 50°00' W 125°12'10 9.7
2016-Dec-03 20:33N 49°53' W 125°02'10 9.7
2016-Dec-03 19:33N 49°47' W 124°50'1010.2
2016-Dec-03 18:33N 49°41' W 124°38'1010.0
2016-Dec-03 17:33N 49°35' W 124°25'1010.1
2016-Dec-03 16:33N 49°30' W 124°11'1010.5
2016-Dec-03 15:33N 49°24' W 123°59'1110.7
2016-Dec-03 14:33N 49°17' W 123°46'1110.7
2016-Dec-03 13:33N 49°11' W 123°32'1110.6
2016-Dec-03 12:33N 49°04' W 123°20'1111.0
2016-Dec-03 11:33N 48°56' W 123°08'1110.4
2016-Dec-03 10:32N 48°50' W 122°56'9 9.3
2016-Dec-03 09:33N 48°44' W 122°45'8 8.1
2016-Dec-03 08:33N 48°36' W 122°45'8 7.7
2016-Dec-03 07:33N 48°28' W 122°44'8 7.5
2016-Dec-03 06:31N 48°21' W 122°45'9 8.6
2016-Dec-03 05:29N 48°12' W 122°47'1212.2
2016-Dec-03 04:33N 48°02' W 122°37'1111.2
2016-Dec-03 03:34N 47°53' W 122°28'1010.2
2016-Dec-03 02:34N 47°43' W 122°26'8 7.8
2016-Dec-03 01:34N 47°36' W 122°22'3 2.8
2016-Dec-03 00:33N 47°33' W 122°21'1 1.1
2016-Dec-02 23:34N 47°34' W 122°21'6 6.1
2016-Dec-02 22:34N 47°40' W 122°24'2 1.5
2016-Dec-02 21:34N 47°39' W 122°22'0 0.0
2016-Dec-02 20:34N 47°39' W 122°22'0 0.0
2016-Dec-02 19:34N 47°39' W 122°22'0 0.0
2016-Dec-02 18:34N 47°39' W 122°22'0 0.0
2016-Dec-02 17:34N 47°39' W 122°22'  

Dump ship's entire track history